Time;durP1;ratioP1;P1;durP2;ratioP2;P2;SDS_P1;SDS_P2;PMS_P1;PMS_P2;Temp;Humidity;BMP_temperature;BMP_pressure;BME280_temperature;BME280_humidity;BME280_pressure;Samples;Min_cycle;Max_cycle;Signal;HPM_P1;HPM_P2
2021/05/16 00:01:08;;;;;;;5.60;4.83;;;;;;;13.09;68.98;98871.00;5043895;28;20580;-72
2021/05/16 00:03:34;;;;;;;5.23;4.60;;;;;;;13.19;68.54;98871.50;5044805;28;20733;-72
2021/05/16 00:06:00;;;;;;;6.77;5.10;;;;;;;13.06;68.80;98866.03;5044250;28;20501;-72
2021/05/16 00:08:27;;;;;;;6.33;5.73;;;;;;;13.09;69.11;98873.66;5044384;28;20492;-72
2021/05/16 00:10:53;;;;;;;5.10;4.70;;;;;;;13.09;68.70;98861.09;5043472;28;20512;-72
2021/05/16 00:13:19;;;;;;;6.00;5.20;;;;;;;12.82;69.51;98863.50;5036883;28;21017;-72
2021/05/16 00:15:47;;;;;;;6.63;5.90;;;;;;;12.91;70.01;98866.06;5043806;28;20508;-72
2021/05/16 00:18:13;;;;;;;5.07;4.57;;;;;;;12.86;69.76;98863.13;5044143;28;20548;-72
2021/05/16 00:20:39;;;;;;;6.50;5.90;;;;;;;13.05;68.91;98854.44;5043877;28;20489;-72
2021/05/16 00:23:05;;;;;;;5.70;5.20;;;;;;;13.08;68.69;98859.44;5044177;28;20519;-72
2021/05/16 00:25:34;;;;;;;6.43;5.83;;;;;;;13.05;69.20;98857.13;5043842;28;20496;-72
2021/05/16 00:28:00;;;;;;;7.33;6.37;;;;;;;12.87;69.26;98870.16;5043699;28;20955;-72
2021/05/16 00:30:27;;;;;;;6.17;5.57;;;;;;;13.15;69.03;98860.31;5035337;28;20903;-72
2021/05/16 00:32:55;;;;;;;6.60;5.40;;;;;;;13.15;69.00;98862.19;5044070;28;20489;-72
2021/05/16 00:35:22;;;;;;;6.33;5.73;;;;;;;12.92;69.77;98857.84;5043301;28;20584;-72
2021/05/16 00:37:49;;;;;;;6.60;6.00;;;;;;;12.84;69.67;98859.81;5044044;28;20497;-73
2021/05/16 00:40:17;;;;;;;7.83;5.93;;;;;;;13.03;69.19;98861.03;5043223;28;20851;-72
2021/05/16 00:42:43;;;;;;;8.67;5.83;;;;;;;12.58;69.67;98866.50;5043850;28;21131;-72
2021/05/16 00:45:11;;;;;;;7.03;5.07;;;;;;;12.84;68.65;98857.13;5043463;28;20442;-72
2021/05/16 00:47:39;;;;;;;6.43;5.50;;;;;;;13.02;68.19;98857.53;5045506;28;20445;-72
2021/05/16 00:50:09;;;;;;;6.90;5.37;;;;;;;12.81;69.28;98859.16;5045854;28;20474;-72
2021/05/16 00:52:38;;;;;;;8.83;5.70;;;;;;;12.89;68.78;98862.75;5036516;28;20592;-72
2021/05/16 00:55:06;;;;;;;8.70;5.20;;;;;;;12.89;68.34;98862.75;5043036;28;20481;-72
2021/05/16 00:57:32;;;;;;;6.43;5.43;;;;;;;12.45;69.40;98861.81;5043487;28;20492;-72
2021/05/16 00:59:58;;;;;;;10.03;5.83;;;;;;;12.39;69.20;98863.41;5043739;28;20477;-72
2021/05/16 01:02:24;;;;;;;7.23;5.67;;;;;;;12.16;70.23;98857.31;5043090;28;20517;-72
2021/05/16 01:04:51;;;;;;;9.13;5.83;;;;;;;12.05;70.44;98861.28;5044267;28;20541;-71
2021/05/16 01:07:18;;;;;;;6.63;6.00;;;;;;;12.33;70.36;98863.31;5043021;28;20568;-72
2021/05/16 01:09:45;;;;;;;10.87;7.30;;;;;;;12.44;69.66;98858.28;5043263;28;20486;-71
2021/05/16 01:12:12;;;;;;;7.13;5.43;;;;;;;12.05;70.71;98872.84;5035114;28;20506;-71
2021/05/16 01:14:41;;;;;;;8.17;6.47;;;;;;;12.09;70.48;98872.47;5034855;28;20442;-71
2021/05/16 01:17:07;;;;;;;11.63;6.40;;;;;;;11.87;71.59;98867.81;5042232;28;20494;-72
2021/05/16 01:19:34;;;;;;;7.60;6.40;;;;;;;11.93;70.86;98871.63;5042956;28;20461;-71
2021/05/16 01:22:01;;;;;;;13.03;5.80;;;;;;;12.19;70.25;98873.03;5042606;28;20544;-72
2021/05/16 01:24:29;;;;;;;9.73;7.13;;;;;;;12.24;69.90;98857.22;5042848;28;20461;-72
2021/05/16 01:26:57;;;;;;;16.63;6.23;;;;;;;12.20;70.19;98861.28;5034094;28;20495;-71
2021/05/16 01:29:24;;;;;;;13.07;6.40;;;;;;;12.14;69.82;98856.69;5041990;28;21060;-72
2021/05/16 01:31:50;;;;;;;9.20;6.00;;;;;;;11.85;70.98;98856.44;5042401;28;20477;-72
2021/05/16 01:34:17;;;;;;;9.97;5.63;;;;;;;11.83;70.30;98854.97;5042638;28;20530;-72
2021/05/16 01:36:43;;;;;;;17.70;6.03;;;;;;;12.14;69.37;98865.53;5041868;28;20508;-71
2021/05/16 01:39:11;;;;;;;8.87;5.60;;;;;;;12.12;69.96;98870.25;5041795;28;20469;-72
2021/05/16 01:41:38;;;;;;;10.87;5.93;;;;;;;12.04;69.71;98857.75;5040482;28;20478;-72
2021/05/16 01:44:06;;;;;;;14.93;6.00;;;;;;;12.02;70.35;98867.84;5042564;28;20787;-72
2021/05/16 01:46:32;;;;;;;9.60;5.60;;;;;;;12.20;69.34;98856.78;5042040;28;20545;-72
2021/05/16 01:48:58;;;;;;;14.40;6.20;;;;;;;12.32;69.05;98861.66;5043705;28;20453;-72
2021/05/16 01:51:25;;;;;;;10.87;6.10;;;;;;;12.38;69.13;98864.41;5042115;28;20919;-72
2021/05/16 01:53:51;;;;;;;8.63;5.63;;;;;;;12.32;69.11;98856.28;5041808;28;20478;-72
2021/05/16 01:56:22;;;;;;;10.73;5.70;;;;;;;12.28;69.33;98855.84;5036063;28;20517;-72
2021/05/16 01:58:48;;;;;;;12.43;7.20;;;;;;;12.31;69.46;98868.88;5039689;28;20543;-72
2021/05/16 02:01:14;;;;;;;11.40;5.90;;;;;;;12.14;69.58;98872.75;5041821;28;20485;-72
2021/05/16 02:03:41;;;;;;;11.60;7.90;;;;;;;12.32;69.36;98869.69;5042483;28;20485;-71
2021/05/16 02:06:08;;;;;;;7.77;5.27;;;;;;;12.41;69.56;98869.41;5042167;28;20478;-72
2021/05/16 02:08:34;;;;;;;9.10;6.80;;;;;;;12.49;68.98;98859.59;5042062;28;20482;-72
2021/05/16 02:11:00;;;;;;;8.70;6.23;;;;;;;12.82;67.77;98873.41;5040784;28;20564;-72
2021/05/16 02:13:27;;;;;;;8.80;6.30;;;;;;;12.88;68.25;98869.13;5042084;28;20818;-72
2021/05/16 02:15:53;;;;;;;8.23;5.87;;;;;;;12.44;68.42;98862.84;5041345;28;20469;-72
2021/05/16 02:18:20;;;;;;;14.70;5.63;;;;;;;12.13;69.69;98857.69;5042035;28;20485;-72
2021/05/16 02:20:46;;;;;;;16.70;6.80;;;;;;;12.41;69.21;98858.69;5041386;28;20512;-72
2021/05/16 02:23:13;;;;;;;9.53;5.80;;;;;;;12.31;70.18;98858.16;5042182;28;20544;-71
2021/05/16 02:25:39;;;;;;;10.13;6.33;;;;;;;12.44;69.05;98866.34;5041295;28;20509;-72
2021/05/16 02:28:06;;;;;;;7.50;5.17;;;;;;;12.30;69.24;98858.31;5041446;28;20552;-72
2021/05/16 02:30:34;;;;;;;7.30;5.90;;;;;;;12.44;69.57;98865.50;5040777;28;21020;-72
2021/05/16 02:33:00;;;;;;;15.03;6.70;;;;;;;11.86;71.33;98857.28;5041641;28;20446;-72
2021/05/16 02:35:26;;;;;;;11.70;6.00;;;;;;;11.97;70.61;98864.88;5041571;28;20473;-72
2021/05/16 02:37:52;;;;;;;8.20;5.70;;;;;;;11.85;71.21;98871.66;5041411;28;20525;-72
2021/05/16 02:40:19;;;;;;;14.30;5.73;;;;;;;12.44;69.55;98860.97;5040681;28;20434;-71
2021/05/16 02:42:45;;;;;;;9.17;5.50;;;;;;;12.41;69.08;98865.88;5041562;28;20576;-72
2021/05/16 02:45:13;;;;;;;7.10;5.60;;;;;;;12.38;69.40;98866.28;5041538;28;20450;-72
2021/05/16 02:47:40;;;;;;;12.47;5.93;;;;;;;12.31;69.71;98871.53;5043255;28;20512;-72
2021/05/16 02:50:07;;;;;;;7.63;5.30;;;;;;;12.40;69.33;98867.75;5042442;28;20454;-72
2021/05/16 02:52:33;;;;;;;11.53;5.30;;;;;;;12.30;69.30;98875.22;5041636;28;20445;-72
2021/05/16 02:54:59;;;;;;;8.30;5.27;;;;;;;12.57;68.29;98871.06;5041371;28;20457;-72
2021/05/16 02:57:26;;;;;;;11.27;4.93;;;;;;;11.82;70.13;98872.03;5040429;28;20486;-71
2021/05/16 02:59:52;;;;;;;9.00;5.17;;;;;;;12.39;69.27;98868.78;5041111;28;21000;-72
2021/05/16 03:02:18;;;;;;;14.17;5.40;;;;;;;12.66;68.04;98873.63;5041068;28;20512;-72
2021/05/16 03:04:45;;;;;;;8.73;6.00;;;;;;;12.91;68.24;98874.94;5041874;28;20473;-72
2021/05/16 03:07:11;;;;;;;10.80;5.90;;;;;;;12.71;68.17;98879.25;5040382;28;20517;-72
2021/05/16 03:09:37;;;;;;;18.73;6.93;;;;;;;12.61;68.75;98879.56;5040537;28;20721;-72
2021/05/16 03:12:04;;;;;;;8.50;6.10;;;;;;;12.49;69.19;98873.00;5040448;28;20492;-71
2021/05/16 03:14:30;;;;;;;11.90;6.30;;;;;;;12.41;69.74;98876.59;5033343;28;20442;-72
2021/05/16 03:16:58;;;;;;;10.80;6.67;;;;;;;12.43;69.48;98875.41;5040481;28;20851;-72
2021/05/16 03:19:24;;;;;;;10.27;5.90;;;;;;;12.69;68.66;98873.22;5041480;28;20518;-72
2021/05/16 03:21:51;;;;;;;13.10;6.67;;;;;;;12.56;69.27;98865.88;5040548;28;20553;-72
2021/05/16 03:24:17;;;;;;;16.37;8.07;;;;;;;12.12;70.05;98872.09;5041197;28;20477;-72
2021/05/16 03:26:44;;;;;;;11.80;6.97;;;;;;;12.19;69.83;98870.34;5039969;28;20490;-72
2021/05/16 03:29:10;;;;;;;14.23;7.60;;;;;;;12.28;69.79;98865.72;5040792;28;20485;-72
2021/05/16 03:31:36;;;;;;;12.47;7.77;;;;;;;12.40;68.86;98874.97;5040119;28;20505;-72
2021/05/16 03:34:03;;;;;;;11.73;6.90;;;;;;;12.69;68.33;98867.88;5041193;28;21061;-72
2021/05/16 03:36:29;;;;;;;12.80;6.80;;;;;;;12.53;68.42;98860.88;5040410;28;20546;-71
2021/05/16 03:38:56;;;;;;;12.30;7.43;;;;;;;12.63;68.73;98870.28;5040732;28;20481;-72
2021/05/16 03:41:23;;;;;;;13.07;7.00;;;;;;;12.40;69.69;98873.09;5032338;28;20560;-71
2021/05/16 03:43:49;;;;;;;16.00;7.97;;;;;;;12.34;69.53;98857.78;5033271;28;20996;-71
2021/05/16 03:46:16;;;;;;;12.60;6.80;;;;;;;12.67;68.33;98865.38;5039984;28;20477;-72
2021/05/16 03:48:42;;;;;;;12.90;8.53;;;;;;;12.65;68.48;98862.06;5040623;28;20477;-72
2021/05/16 03:51:10;;;;;;;9.97;7.10;;;;;;;12.48;69.02;98861.47;5040382;28;20510;-72
2021/05/16 03:53:37;;;;;;;12.20;7.57;;;;;;;12.51;68.96;98869.09;5040669;28;20545;-72
2021/05/16 03:56:06;;;;;;;24.23;9.50;;;;;;;12.61;68.92;98869.66;5040000;28;20493;-72
2021/05/16 03:58:32;;;;;;;13.90;8.00;;;;;;;12.31;69.62;98876.91;5039990;28;20481;-72
2021/05/16 04:00:58;;;;;;;16.47;9.20;;;;;;;12.39;69.19;98866.09;5033973;28;20501;-72
2021/05/16 04:03:24;;;;;;;16.57;8.53;;;;;;;12.20;69.74;98867.50;5044693;28;20743;-71
2021/05/16 04:05:50;;;;;;;11.93;7.40;;;;;;;12.10;70.29;98866.06;5043766;28;20508;-71
2021/05/16 04:08:16;;;;;;;15.20;9.77;;;;;;;11.82;71.07;98867.53;5044168;28;20482;-71
2021/05/16 04:10:42;;;;;;;18.30;9.17;;;;;;;12.04;70.79;98870.34;5042868;28;20473;-71
2021/05/16 04:13:09;;;;;;;14.27;8.77;;;;;;;12.29;70.61;98880.78;5044595;28;20438;-72
2021/05/16 04:15:35;;;;;;;16.10;8.43;;;;;;;12.16;70.08;98874.22;5043472;28;20557;-72
2021/05/16 04:18:02;;;;;;;21.00;10.10;;;;;;;12.48;69.51;98880.22;5043961;28;20478;-72
2021/05/16 04:20:28;;;;;;;17.57;9.80;;;;;;;12.18;70.59;98874.84;5043760;28;21170;-71
2021/05/16 04:22:54;;;;;;;18.10;9.80;;;;;;;12.43;69.93;98880.78;5044081;28;20732;-72
2021/05/16 04:25:21;;;;;;;14.97;9.03;;;;;;;11.98;71.14;98884.47;5043810;28;20975;-71
2021/05/16 04:27:47;;;;;;;14.37;8.10;;;;;;;11.89;71.03;98878.34;5043839;28;20940;-71
2021/05/16 04:30:15;;;;;;;15.47;8.60;;;;;;;12.30;70.23;98888.63;5043080;28;20521;-71
2021/05/16 04:32:41;;;;;;;16.97;10.17;;;;;;;12.30;69.96;98888.63;5044213;28;20980;-72
2021/05/16 04:35:08;;;;;;;15.50;8.70;;;;;;;12.30;69.61;98887.81;5043331;28;20445;-72
2021/05/16 04:37:34;;;;;;;20.20;8.97;;;;;;;12.20;70.00;98888.94;5043469;28;20576;-71
2021/05/16 04:40:01;;;;;;;15.43;8.50;;;;;;;12.29;69.71;98889.66;5043818;28;20517;-72
2021/05/16 04:42:27;;;;;;;13.63;7.63;;;;;;;12.37;68.80;98892.22;5042966;28;20509;-72
2021/05/16 04:44:53;;;;;;;18.40;7.17;;;;;;;12.07;70.38;98890.56;5043655;28;20544;-72
2021/05/16 04:47:20;;;;;;;15.53;7.73;;;;;;;12.53;69.19;98888.50;5043159;28;20855;-71
2021/05/16 04:49:46;;;;;;;14.87;8.97;;;;;;;12.38;68.81;98887.72;5037871;28;20458;-72
2021/05/16 04:52:13;;;;;;;19.03;7.03;;;;;;;12.34;68.42;98889.09;5040620;28;20568;-72
2021/05/16 04:54:39;;;;;;;14.07;6.80;;;;;;;12.66;68.42;98895.91;5043197;28;20461;-72
2021/05/16 04:57:05;;;;;;;17.60;6.47;;;;;;;12.44;68.72;98889.63;5042396;28;20531;-71
2021/05/16 04:59:32;;;;;;;14.57;6.90;;;;;;;12.66;67.97;98889.72;5043532;28;20659;-72
2021/05/16 05:01:58;;;;;;;18.23;7.97;;;;;;;13.09;67.02;98895.13;5043078;28;20564;-72
2021/05/16 05:04:25;;;;;;;20.30;7.90;;;;;;;13.10;67.29;98897.63;5043467;28;20544;-72
2021/05/16 05:06:51;;;;;;;18.03;6.40;;;;;;;13.39;66.10;98898.59;5042674;28;20477;-72
2021/05/16 05:09:17;;;;;;;15.17;7.33;;;;;;;12.63;67.78;98897.09;5042721;28;21028;-71
2021/05/16 05:11:44;;;;;;;16.50;6.70;;;;;;;12.86;67.11;98895.31;5042108;28;20491;-72
2021/05/16 05:14:10;;;;;;;16.07;7.37;;;;;;;12.89;66.96;98902.97;5042857;28;20446;-72
2021/05/16 05:16:36;;;;;;;16.87;6.80;;;;;;;13.21;66.20;98903.53;5042602;28;20492;-72
2021/05/16 05:19:02;;;;;;;11.50;5.33;;;;;;;12.69;67.43;98897.38;5042946;28;20498;-72
2021/05/16 05:21:29;;;;;;;13.00;6.70;;;;;;;12.91;66.78;98901.75;5042683;28;20509;-72
2021/05/16 05:23:55;;;;;;;13.97;6.33;;;;;;;13.45;65.00;98900.47;5043047;28;20490;-72
2021/05/16 05:26:21;;;;;;;17.33;5.60;;;;;;;12.86;66.10;98900.66;5041587;28;20572;-72
2021/05/16 05:28:47;;;;;;;11.47;5.27;;;;;;;12.68;66.90;98904.59;5042454;28;20462;-71
2021/05/16 05:31:13;;;;;;;12.73;5.60;;;;;;;12.41;66.53;98898.91;5042180;28;20516;-71
2021/05/16 05:33:39;;;;;;;10.03;4.73;;;;;;;12.79;66.58;98901.44;5042763;28;20537;-71
2021/05/16 05:36:06;;;;;;;11.87;5.83;;;;;;;12.51;67.06;98914.69;5042487;28;21006;-71
2021/05/16 05:38:33;;;;;;;14.33;5.10;;;;;;;12.95;66.74;98902.22;5042458;28;20919;-71
2021/05/16 05:40:59;;;;;;;16.37;5.63;;;;;;;12.99;66.02;98909.69;5041935;28;20505;-72
2021/05/16 05:43:26;;;;;;;12.93;5.27;;;;;;;12.70;66.10;98905.22;5036994;28;20543;-72
2021/05/16 05:45:52;;;;;;;12.73;4.97;;;;;;;12.40;67.73;98907.13;5041562;28;20567;-71
2021/05/16 05:48:18;;;;;;;15.97;5.90;;;;;;;12.73;66.39;98910.22;5042470;28;20544;-72
2021/05/16 05:50:44;;;;;;;14.50;5.60;;;;;;;12.84;66.37;98903.53;5042152;28;20552;-72
2021/05/16 05:53:10;;;;;;;13.70;4.67;;;;;;;12.70;66.06;98912.44;5042002;28;20817;-72
2021/05/16 05:55:37;;;;;;;13.50;4.50;;;;;;;12.80;66.71;98910.31;5041742;28;20473;-71
2021/05/16 05:58:03;;;;;;;11.70;4.33;;;;;;;12.91;65.74;98919.72;5041927;28;20521;-72
2021/05/16 06:00:30;;;;;;;17.73;4.33;;;;;;;12.78;66.22;98918.53;5041938;28;20564;-72
2021/05/16 06:02:56;;;;;;;17.70;4.53;;;;;;;13.29;65.11;98911.47;5042194;28;20473;-72
2021/05/16 06:05:25;;;;;;;18.57;4.13;;;;;;;13.04;65.65;98919.03;5041927;28;20549;-72
2021/05/16 06:07:51;;;;;;;11.27;4.00;;;;;;;12.58;65.79;98926.31;5041931;28;20998;-72
2021/05/16 06:10:17;;;;;;;15.00;4.27;;;;;;;13.06;64.20;98923.19;5041555;28;20484;-72
2021/05/16 06:12:44;;;;;;;17.67;3.83;;;;;;;14.00;62.34;98930.28;5042183;28;20466;-72
2021/05/16 06:15:11;;;;;;;7.57;3.70;;;;;;;13.66;62.54;98921.16;5041705;28;20510;-72
2021/05/16 06:17:37;;;;;;;22.50;4.00;;;;;;;13.62;62.52;98927.09;5041623;28;20442;-72
2021/05/16 06:20:05;;;;;;;16.60;4.87;;;;;;;13.55;63.55;98922.47;5042166;28;20507;-72
2021/05/16 06:22:31;;;;;;;9.87;4.00;;;;;;;13.46;62.45;98925.50;5041439;28;20521;-72
2021/05/16 06:24:57;;;;;;;11.13;4.03;;;;;;;13.11;63.68;98925.31;5041648;28;20481;-72
2021/05/16 06:27:23;;;;;;;14.10;3.20;;;;;;;13.31;62.96;98934.41;5040863;28;20481;-71
2021/05/16 06:29:50;;;;;;;14.90;4.10;;;;;;;13.66;63.10;98931.03;5041168;28;20640;-72
2021/05/16 06:32:16;;;;;;;8.90;3.07;;;;;;;13.66;62.43;98931.88;5041418;28;20469;-72
2021/05/16 06:34:42;;;;;;;13.30;3.10;;;;;;;13.30;62.70;98927.38;5034555;28;20478;-72
2021/05/16 06:37:09;;;;;;;10.93;3.77;;;;;;;13.18;62.66;98932.41;5029782;28;20486;-71
2021/05/16 06:39:35;;;;;;;13.37;3.20;;;;;;;13.37;62.07;98930.16;5032995;28;20458;-71
2021/05/16 06:42:01;;;;;;;6.47;2.77;;;;;;;14.37;60.22;98930.13;5033060;28;20506;-72
2021/05/16 06:44:27;;;;;;;8.23;2.70;;;;;;;14.50;58.34;98931.03;5031646;28;20439;-72
2021/05/16 06:46:54;;;;;;;13.63;3.83;;;;;;;14.59;58.85;98930.91;5033666;28;20505;-72
2021/05/16 06:49:20;;;;;;;11.50;4.33;;;;;;;14.68;58.18;98935.91;5034734;28;20868;-72
2021/05/16 06:51:47;;;;;;;18.47;4.47;;;;;;;14.11;59.15;98936.97;5037341;28;20473;-72
2021/05/16 06:54:13;;;;;;;14.50;4.30;;;;;;;13.78;60.48;98931.34;5033054;28;20509;-72
2021/05/16 06:56:39;;;;;;;16.83;4.60;;;;;;;13.86;60.34;98939.28;5033528;28;20513;-72
2021/05/16 06:59:05;;;;;;;9.47;3.40;;;;;;;14.35;59.23;98933.00;5031935;28;20451;-72
2021/05/16 07:01:32;;;;;;;12.20;3.37;;;;;;;14.82;58.47;98935.97;5032064;28;20493;-72
2021/05/16 07:03:59;;;;;;;10.57;3.67;;;;;;;14.86;58.18;98937.25;5033115;28;20465;-72
2021/05/16 07:06:25;;;;;;;9.50;3.87;;;;;;;15.19;56.86;98934.66;5034261;28;20508;-72
2021/05/16 07:08:51;;;;;;;16.43;3.50;;;;;;;15.71;56.32;98936.81;5033577;28;20464;-72
2021/05/16 07:11:17;;;;;;;10.20;3.13;;;;;;;14.85;57.67;98941.78;5031283;28;20510;-72
2021/05/16 07:13:44;;;;;;;8.07;3.30;;;;;;;13.86;60.32;98948.16;5033024;28;20493;-72
2021/05/16 07:16:10;;;;;;;9.20;4.60;;;;;;;14.28;58.87;98945.59;5030975;28;21037;-72
2021/05/16 07:18:37;;;;;;;13.67;5.40;;;;;;;14.32;59.37;98945.00;5032284;28;20458;-72
2021/05/16 07:21:04;;;;;;;18.57;4.47;;;;;;;14.61;57.41;98945.81;5037407;28;20563;-72
2021/05/16 07:23:31;;;;;;;13.37;4.80;;;;;;;14.05;59.93;98943.16;5031908;28;20490;-72
2021/05/16 07:25:58;;;;;;;14.60;5.50;;;;;;;14.42;58.38;98936.56;5032204;28;20514;-72
2021/05/16 07:28:24;;;;;;;7.87;4.30;;;;;;;14.00;59.50;98942.91;5031321;28;20458;-71
2021/05/16 07:30:50;;;;;;;10.33;4.60;;;;;;;14.82;57.27;98947.56;5035424;28;20505;-73
2021/05/16 07:33:16;;;;;;;8.33;5.03;;;;;;;15.65;55.35;98940.34;5030858;28;20462;-72
2021/05/16 07:35:42;;;;;;;9.43;4.37;;;;;;;16.64;52.24;98942.13;5032840;28;20501;-72
2021/05/16 07:38:09;;;;;;;12.57;5.10;;;;;;;16.46;53.20;98936.59;5039965;28;20458;-73
2021/05/16 07:40:37;;;;;;;13.80;4.93;;;;;;;18.52;47.24;98939.91;5035568;28;20476;-73
2021/05/16 07:43:03;;;;;;;11.00;5.10;;;;;;;17.78;48.25;98944.28;5037635;28;20481;-73
2021/05/16 07:45:29;;;;;;;18.03;7.27;;;;;;;16.57;51.25;98927.84;5037091;28;20607;-69
2021/05/16 07:47:56;;;;;;;17.53;6.87;;;;;;;17.45;49.63;98937.25;5035150;28;21249;-70
2021/05/16 07:50:22;;;;;;;11.67;6.87;;;;;;;15.86;52.01;98934.78;5033772;28;20547;-73
2021/05/16 07:52:48;;;;;;;15.10;6.77;;;;;;;17.71;48.80;98936.22;5038549;28;20450;-73
2021/05/16 07:55:15;;;;;;;10.67;6.40;;;;;;;17.78;48.91;98945.13;5036948;28;20958;-73
2021/05/16 07:57:42;;;;;;;12.77;6.37;;;;;;;17.97;47.63;98943.34;5036379;28;20534;-73
2021/05/16 08:00:11;;;;;;;11.80;5.60;;;;;;;17.55;48.52;98940.31;5035222;28;20517;-73
2021/05/16 08:02:37;;;;;;;12.40;5.67;;;;;;;17.11;48.69;98928.50;5037522;28;21051;-73
2021/05/16 08:05:04;;;;;;;13.10;6.83;;;;;;;16.63;51.43;98931.56;5034171;28;20569;-72
2021/05/16 08:07:30;;;;;;;11.23;5.70;;;;;;;17.30;49.01;98938.34;5031480;28;20491;-73
2021/05/16 08:09:56;;;;;;;9.83;5.70;;;;;;;17.75;47.94;98933.91;5034857;28;20477;-73
2021/05/16 08:12:23;;;;;;;13.40;5.50;;;;;;;18.79;46.08;98945.03;5034771;28;20545;-73
2021/05/16 08:14:49;;;;;;;11.50;6.00;;;;;;;20.28;43.32;98938.09;5034647;28;21051;-73
2021/05/16 08:17:16;;;;;;;12.67;5.47;;;;;;;19.52;43.60;98927.81;5034847;28;20505;-72
2021/05/16 08:19:42;;;;;;;12.67;5.43;;;;;;;18.95;45.51;98938.19;5034439;28;20454;-74
2021/05/16 08:22:10;;;;;;;12.97;5.50;;;;;;;21.38;40.81;98930.88;5034420;28;20497;-73
2021/05/16 08:24:36;;;;;;;10.37;5.97;;;;;;;21.85;37.99;98935.25;5034534;28;20963;-74
2021/05/16 08:27:05;;;;;;;9.00;5.20;;;;;;;20.93;39.90;98931.63;5033530;28;20479;-73
2021/05/16 08:29:32;;;;;;;11.57;4.83;;;;;;;20.46;40.26;98923.56;5035026;28;20473;-74
2021/05/16 08:31:58;;;;;;;7.73;5.10;;;;;;;18.99;44.24;98936.66;5034788;28;20488;-74
2021/05/16 08:34:24;;;;;;;8.53;4.70;;;;;;;18.34;45.04;98924.47;5035018;28;20447;-74
2021/05/16 08:36:50;;;;;;;7.77;5.40;;;;;;;18.14;46.17;98935.50;5030966;28;20470;-74
2021/05/16 08:39:16;;;;;;;17.30;5.73;;;;;;;17.12;47.97;98928.28;5034777;28;20514;-73
2021/05/16 08:41:43;;;;;;;11.13;4.77;;;;;;;17.53;47.16;98925.34;5032800;28;20511;-74
2021/05/16 08:44:09;;;;;;;5.27;4.00;;;;;;;18.56;44.11;98926.75;5034749;28;20455;-74
2021/05/16 08:46:36;;;;;;;9.80;4.50;;;;;;;18.28;44.24;98917.25;5033929;28;20489;-73
2021/05/16 08:49:03;;;;;;;11.57;5.03;;;;;;;18.91;44.20;98926.16;5034674;28;20457;-74
2021/05/16 08:51:29;;;;;;;8.07;3.90;;;;;;;19.14;43.84;98926.25;5034561;28;20485;-74
2021/05/16 08:53:56;;;;;;;10.27;4.63;;;;;;;19.97;42.01;98928.41;5032402;28;20477;-74
2021/05/16 08:56:22;;;;;;;9.07;4.50;;;;;;;19.16;42.16;98932.28;5033517;28;20561;-74
2021/05/16 08:58:48;;;;;;;10.40;4.27;;;;;;;19.48;41.46;98931.25;5034267;28;20462;-74
2021/05/16 09:01:19;;;;;;;9.67;4.00;;;;;;;17.50;45.76;98932.03;5034729;28;20478;-73
2021/05/16 09:03:46;;;;;;;9.97;3.53;;;;;;;17.00;47.95;98935.41;5034141;28;20502;-73
2021/05/16 09:06:12;;;;;;;13.97;4.27;;;;;;;16.78;48.49;98932.13;5032607;28;20836;-74
2021/05/16 09:08:38;;;;;;;5.63;3.10;;;;;;;19.22;41.38;98921.56;5035007;28;20906;-73
2021/05/16 09:11:04;;;;;;;12.53;4.20;;;;;;;22.57;37.40;98939.13;5032715;28;20549;-73
2021/05/16 09:13:31;;;;;;;8.60;3.60;;;;;;;21.48;36.95;98929.47;5031265;28;20569;-73
2021/05/16 09:16:09;;;;;;;10.47;4.00;;;;;;;20.15;40.95;98925.56;5040392;28;20524;-75
2021/05/16 09:18:41;;;;;;;11.20;3.20;;;;;;;19.03;43.84;98927.06;5032648;28;20454;-73
2021/05/16 09:21:27;;;;;;;8.03;3.40;;;;;;;18.22;43.77;98932.47;5033294;28;20458;-74
2021/05/16 09:24:14;;;;;;;7.10;3.10;;;;;;;18.39;43.75;98935.44;5036924;28;20559;-73
2021/05/16 09:26:52;;;;;;;12.03;3.30;;;;;;;18.10;44.62;98941.56;5039273;28;20476;-74
2021/05/16 09:29:27;;;;;;;5.80;3.07;;;;;;;18.47;43.65;98939.75;5019717;28;20478;-74
2021/05/16 09:31:53;;;;;;;7.60;3.93;;;;;;;18.13;44.64;98949.25;5022741;28;20665;-74
2021/05/16 09:34:21;;;;;;;9.70;4.30;;;;;;;18.11;43.36;98945.94;5040647;28;20429;-74
2021/05/16 09:36:48;;;;;;;8.90;4.30;;;;;;;18.50;43.20;98943.88;5039137;28;20493;-74
2021/05/16 09:39:19;;;;;;;10.93;4.30;;;;;;;18.65;43.01;98952.47;5040978;28;20450;-74
2021/05/16 09:41:58;;;;;;;11.87;4.37;;;;;;;18.33;41.84;98947.19;5040279;28;20545;-74
2021/05/16 09:44:32;;;;;;;9.90;4.40;;;;;;;18.00;43.58;98951.00;5039191;28;20556;-73
2021/05/16 09:47:12;;;;;;;9.80;4.20;;;;;;;17.48;43.55;98956.56;5040009;28;20477;-74
2021/05/16 09:49:39;;;;;;;15.20;4.87;;;;;;;17.63;45.26;98950.00;5040473;28;20461;-74
2021/05/16 09:52:10;;;;;;;12.03;4.20;;;;;;;18.29;43.71;98945.13;5039020;28;20535;-74
2021/05/16 09:55:00;;;;;;;17.93;4.50;;;;;;;19.71;38.97;98938.59;5039883;28;20461;-74
2021/05/16 09:57:29;;;;;;;10.87;4.20;;;;;;;21.67;37.07;98932.78;5039713;28;21044;-74
2021/05/16 09:59:55;;;;;;;8.30;4.60;;;;;;;20.80;38.36;98938.19;5039128;28;20489;-74
2021/05/16 10:02:24;;;;;;;10.97;4.57;;;;;;;19.85;39.82;98931.09;5039657;28;20482;-74
2021/05/16 10:04:52;;;;;;;12.30;4.10;;;;;;;19.63;40.57;98938.91;5039864;28;20430;-74
2021/05/16 10:07:20;;;;;;;8.57;4.07;;;;;;;20.46;39.69;98940.66;5038886;28;20537;-74
2021/05/16 10:09:47;;;;;;;9.33;4.50;;;;;;;18.68;43.33;98948.47;5039774;28;20488;-74
2021/05/16 10:12:13;;;;;;;9.27;4.50;;;;;;;18.22;43.55;98937.06;5039472;28;20588;-74
2021/05/16 10:14:42;;;;;;;11.93;4.50;;;;;;;18.14;43.09;98940.91;5038653;28;20449;-74
2021/05/16 10:17:09;;;;;;;13.23;3.60;;;;;;;18.64;42.22;98937.25;5039487;28;20568;-74
2021/05/16 10:19:38;;;;;;;10.37;3.80;;;;;;;18.73;42.20;98937.78;5039322;28;20477;-74
2021/05/16 10:22:13;;;;;;;12.47;2.80;;;;;;;18.09;42.01;98934.47;5037938;28;20536;-74
2021/05/16 10:24:41;;;;;;;6.03;2.87;;;;;;;18.09;43.06;98938.03;5039590;28;20571;-74
2021/05/16 10:27:20;;;;;;;7.97;2.90;;;;;;;17.91;43.32;98933.38;5038866;28;20738;-74
2021/05/16 10:29:47;;;;;;;8.90;2.63;;;;;;;17.33;44.92;98925.47;5038383;28;20491;-74
2021/05/16 10:32:24;;;;;;;5.93;2.70;;;;;;;17.41;44.80;98933.31;5039172;28;20487;-74
2021/05/16 10:34:54;;;;;;;11.70;3.80;;;;;;;16.50;47.29;98937.81;5035560;28;20441;-74
2021/05/16 10:37:41;;;;;;;7.00;2.80;;;;;;;16.46;48.32;98933.91;5033608;28;20546;-74
2021/05/16 10:40:23;;;;;;;6.37;2.70;;;;;;;16.68;47.83;98931.75;5035287;28;20493;-73
2021/05/16 10:42:50;;;;;;;5.80;2.03;;;;;;;16.94;46.50;98934.41;5036751;28;20513;-70
2021/05/16 10:45:18;;;;;;;9.00;3.03;;;;;;;18.08;45.72;98935.56;5038480;28;20453;-73
2021/05/16 10:48:04;;;;;;;10.80;2.53;;;;;;;18.05;44.69;98934.94;5032677;28;20445;-69
2021/05/16 10:50:56;;;;;;;8.63;3.13;;;;;;;18.47;42.78;98925.38;5032946;28;20477;-65
2021/05/16 10:53:29;;;;;;;6.60;2.90;;;;;;;18.73;42.09;98937.78;5048250;28;20544;-74
2021/05/16 10:56:11;;;;;;;5.73;2.20;;;;;;;19.11;41.26;98929.44;5043351;28;20492;-71
2021/05/16 10:58:56;;;;;;;7.27;2.30;;;;;;;20.30;39.72;98906.94;5036823;28;20511;-73
2021/05/16 11:01:37;;;;;;;6.43;2.60;;;;;;;19.42;40.85;98905.84;5032758;28;20565;-72
2021/05/16 11:04:05;;;;;;;11.40;3.60;;;;;;;19.72;40.45;98907.69;5037732;28;20438;-71
2021/05/16 11:06:56;;;;;;;5.90;2.97;;;;;;;21.31;39.44;98910.38;5036692;28;20510;-70
2021/05/16 11:09:27;;;;;;;9.20;2.33;;;;;;;19.75;40.13;98907.25;5032427;28;20617;-74
2021/05/16 11:11:59;;;;;;;7.63;2.83;;;;;;;19.98;39.82;98902.91;5041426;28;20485;-71
2021/05/16 11:14:27;;;;;;;7.20;2.70;;;;;;;20.54;38.46;98896.06;5038477;28;20772;-74
2021/05/16 11:16:56;;;;;;;8.10;3.23;;;;;;;20.30;38.70;98898.78;5027031;28;20841;-69
2021/05/16 11:19:24;;;;;;;6.10;2.87;;;;;;;19.21;40.84;98895.56;5041125;28;20524;-71
2021/05/16 11:21:51;;;;;;;16.23;3.97;;;;;;;19.50;40.80;98894.69;5040335;28;20481;-74
2021/05/16 11:24:35;;;;;;;9.40;3.30;;;;;;;18.97;40.56;98899.00;5041433;28;20504;-70
2021/05/16 11:27:13;;;;;;;9.43;3.47;;;;;;;19.23;38.94;98890.72;5040406;28;20481;-68
2021/05/16 11:29:40;;;;;;;6.20;3.17;;;;;;;18.80;39.87;98889.78;5040599;28;20841;-65
2021/05/16 11:32:07;;;;;;;8.90;3.50;;;;;;;19.72;39.39;98886.00;5041530;28;20769;-76